createdAt,value
2023-01-20T00:01:47.848Z,5.74
2023-01-20T00:04:15.395Z,5.60
2023-01-20T00:06:43.404Z,5.48
2023-01-20T00:09:14.433Z,5.49
2023-01-20T00:11:44.833Z,5.46
2023-01-20T00:14:11.860Z,5.37
2023-01-20T00:16:39.799Z,5.36
2023-01-20T00:19:07.747Z,5.30
2023-01-20T00:21:35.637Z,5.27
2023-01-20T00:24:06.822Z,5.17
2023-01-20T00:26:34.980Z,5.14
2023-01-20T00:29:05.949Z,5.08
2023-01-20T00:31:33.349Z,5.06
2023-01-20T00:34:01.209Z,5.06
2023-01-20T00:36:29.931Z,5.05
2023-01-20T00:38:57.959Z,5.06
2023-01-20T00:41:26.168Z,4.98
2023-01-20T00:43:53.713Z,4.89
2023-01-20T00:46:23.008Z,4.90
2023-01-20T00:48:50.706Z,4.92
2023-01-20T00:51:18.259Z,4.85
2023-01-20T00:53:46.417Z,4.84
2023-01-20T00:56:14.497Z,4.88
2023-01-20T00:58:44.449Z,4.93
2023-01-20T01:01:15.646Z,4.95
2023-01-20T01:03:43.778Z,4.98
2023-01-20T01:06:13.166Z,4.92
2023-01-20T01:08:41.287Z,4.88
2023-01-20T01:11:08.344Z,4.82
2023-01-20T01:13:36.025Z,4.77
2023-01-20T01:16:03.175Z,4.72
2023-01-20T01:18:32.845Z,4.70
2023-01-20T01:21:00.440Z,4.69
2023-01-20T01:23:28.525Z,4.70
2023-01-20T01:25:57.006Z,4.71
2023-01-20T01:28:25.498Z,4.69
2023-01-20T01:30:53.568Z,4.63
2023-01-20T01:33:21.112Z,4.64
2023-01-20T01:36:03.669Z,4.66
2023-01-20T01:38:31.021Z,4.67
2023-01-20T01:40:58.432Z,4.68
2023-01-20T01:43:27.719Z,4.69
2023-01-20T01:45:55.075Z,4.63
2023-01-20T01:48:26.883Z,4.60
2023-01-20T01:50:57.078Z,4.59
2023-01-20T01:53:25.492Z,4.53
2023-01-20T01:56:00.816Z,4.47
2023-01-20T01:58:30.716Z,4.46
2023-01-20T02:00:59.482Z,4.44
2023-01-20T02:03:36.624Z,4.45
2023-01-20T02:06:10.857Z,4.46
2023-01-20T02:08:41.076Z,4.45
2023-01-20T02:11:08.676Z,4.53
2023-01-20T02:13:36.415Z,4.53
2023-01-20T02:16:25.269Z,4.52
2023-01-20T02:19:22.540Z,4.42
2023-01-20T02:21:55.462Z,4.38
2023-01-20T02:24:40.851Z,4.28
2023-01-20T02:27:13.884Z,4.27
2023-01-20T02:29:59.610Z,4.29
2023-01-20T02:32:26.695Z,4.29
2023-01-20T02:35:04.223Z,4.29
2023-01-20T02:38:14.689Z,4.26
2023-01-20T02:40:56.458Z,4.19
2023-01-20T02:44:01.509Z,4.20
2023-01-20T02:47:04.269Z,4.12
2023-01-20T02:49:35.535Z,4.17
2023-01-20T02:52:06.054Z,4.14
2023-01-20T02:54:33.836Z,4.13
2023-01-20T02:57:01.446Z,4.07
2023-01-20T02:59:31.467Z,4.01
2023-01-20T03:02:03.210Z,4.03
2023-01-20T03:04:34.038Z,4.01
2023-01-20T03:07:01.576Z,4.01
2023-01-20T03:09:34.757Z,4.05
2023-01-20T03:12:05.310Z,4.11
2023-01-20T03:14:33.299Z,4.12
2023-01-20T03:17:02.050Z,4.17
2023-01-20T03:19:29.751Z,4.25
2023-01-20T03:21:57.392Z,4.26
2023-01-20T03:24:24.950Z,4.18
2023-01-20T03:26:51.663Z,4.15
2023-01-20T03:29:19.224Z,4.08
2023-01-20T03:31:58.136Z,4.03
2023-01-20T03:34:26.535Z,3.97
2023-01-20T03:36:54.375Z,3.98
2023-01-20T03:39:21.896Z,4.00
2023-01-20T03:42:09.007Z,3.98
2023-01-20T03:44:54.106Z,3.99
2023-01-20T03:47:34.676Z,4.01
2023-01-20T03:50:07.895Z,4.03
2023-01-20T03:52:46.489Z,4.06
2023-01-20T03:55:35.689Z,4.09
2023-01-20T03:58:10.330Z,4.10
2023-01-20T04:00:43.142Z,4.03
2023-01-20T04:03:16.488Z,4.03
2023-01-20T04:05:44.625Z,4.03
2023-01-20T04:08:12.847Z,4.04
2023-01-20T04:10:41.016Z,4.01
2023-01-20T04:13:08.531Z,4.04
2023-01-20T04:15:38.453Z,4.03
2023-01-20T04:18:16.263Z,4.05
2023-01-20T04:20:45.211Z,4.01
2023-01-20T04:23:24.262Z,4.04
2023-01-20T04:25:58.245Z,3.98
2023-01-20T04:28:26.316Z,3.97
2023-01-20T04:30:54.537Z,3.95
2023-01-20T04:33:22.727Z,3.84
2023-01-20T04:35:50.874Z,3.74
2023-01-20T04:38:18.900Z,3.70
2023-01-20T04:40:47.007Z,3.66
2023-01-20T04:43:15.549Z,3.66
2023-01-20T04:45:43.520Z,3.61
2023-01-20T04:48:12.058Z,3.57
2023-01-20T04:50:43.484Z,3.50
2023-01-20T04:53:16.790Z,3.45
2023-01-20T04:55:45.356Z,3.40
2023-01-20T04:58:13.456Z,3.36
2023-01-20T05:00:42.964Z,3.30
2023-01-20T05:03:11.909Z,3.38
2023-01-20T05:05:39.676Z,3.43
2023-01-20T05:08:07.976Z,3.44
2023-01-20T05:10:35.995Z,3.50
2023-01-20T05:13:03.538Z,3.53
2023-01-20T05:15:31.633Z,3.57
2023-01-20T05:17:59.811Z,3.55
2023-01-20T05:20:28.076Z,3.56
2023-01-20T05:22:55.866Z,3.56
2023-01-20T05:25:24.109Z,3.57
2023-01-20T05:27:51.904Z,3.62
2023-01-20T05:30:20.186Z,3.63
2023-01-20T05:32:50.136Z,3.63
2023-01-20T05:35:19.033Z,3.61
2023-01-20T05:37:46.948Z,3.57
2023-01-20T05:40:13.647Z,3.55
2023-01-20T05:42:41.346Z,3.53
2023-01-20T05:45:12.482Z,3.55
2023-01-20T05:47:40.677Z,3.57
2023-01-20T05:50:09.367Z,3.57
2023-01-20T05:52:37.740Z,3.56
2023-01-20T05:55:06.759Z,3.57
2023-01-20T05:57:34.674Z,3.53
2023-01-20T06:00:03.277Z,3.53
2023-01-20T06:02:34.528Z,3.51
2023-01-20T06:05:02.541Z,3.45
2023-01-20T06:07:31.074Z,3.50
2023-01-20T06:09:58.688Z,3.51
2023-01-20T06:12:26.673Z,3.53
2023-01-20T06:14:54.541Z,3.54
2023-01-20T06:17:22.344Z,3.56
2023-01-20T06:19:50.813Z,3.52
2023-01-20T06:22:20.354Z,3.44
2023-01-20T06:24:48.256Z,3.42
2023-01-20T06:27:16.991Z,3.38
2023-01-20T06:29:47.877Z,3.34
2023-01-20T06:32:15.389Z,3.35
2023-01-20T06:34:42.902Z,3.25
2023-01-20T06:37:11.083Z,3.24
2023-01-20T06:39:39.001Z,3.22
2023-01-20T06:42:07.466Z,3.18
2023-01-20T06:44:35.103Z,3.21
2023-01-20T06:47:02.844Z,3.22
2023-01-20T06:49:30.953Z,3.24
2023-01-20T06:51:59.155Z,3.24
2023-01-20T06:54:27.271Z,3.26
2023-01-20T06:56:55.957Z,3.25
2023-01-20T06:59:24.382Z,3.29
2023-01-20T07:01:52.197Z,3.39
2023-01-20T07:04:20.254Z,3.51
2023-01-20T07:06:48.451Z,3.57
2023-01-20T07:09:16.502Z,3.54
2023-01-20T07:11:44.592Z,3.68
2023-01-20T07:14:12.206Z,3.75
2023-01-20T07:16:39.809Z,3.86
2023-01-20T07:19:07.845Z,3.91
2023-01-20T07:21:35.817Z,3.97
2023-01-20T07:24:04.979Z,4.06
2023-01-20T07:26:32.778Z,4.10
2023-01-20T07:29:00.852Z,4.15
2023-01-20T07:31:29.716Z,4.13
2023-01-20T07:33:57.190Z,4.13
2023-01-20T07:36:25.173Z,4.08
2023-01-20T07:38:53.879Z,4.12
2023-01-20T07:41:21.649Z,4.29
2023-01-20T07:43:50.442Z,4.44
2023-01-20T07:46:17.678Z,4.53
2023-01-20T07:48:45.953Z,4.61
2023-01-20T07:51:16.576Z,4.74
2023-01-20T07:53:48.601Z,4.83
2023-01-20T07:56:19.390Z,4.96
2023-01-20T07:58:47.678Z,5.07
2023-01-20T08:01:35.430Z,5.11
2023-01-20T08:04:02.949Z,5.13
2023-01-20T08:06:30.915Z,5.19
2023-01-20T08:09:01.296Z,5.22
2023-01-20T08:11:29.338Z,5.29
2023-01-20T08:13:57.079Z,5.22
2023-01-20T08:16:25.384Z,5.16
2023-01-20T08:18:54.996Z,5.30
2023-01-20T08:21:24.915Z,5.21
2023-01-20T08:23:53.599Z,5.27
2023-01-20T08:26:21.685Z,5.37
2023-01-20T08:28:49.768Z,5.36
2023-01-20T08:31:19.032Z,5.52
2023-01-20T08:33:46.488Z,5.61
2023-01-20T08:36:15.979Z,5.60
2023-01-20T08:38:43.306Z,5.60
2023-01-20T08:41:15.449Z,5.59
2023-01-20T08:43:43.139Z,5.70
2023-01-20T08:48:57.827Z,5.61
2023-01-20T08:51:29.837Z,5.59
2023-01-20T08:53:57.972Z,5.57
2023-01-20T08:56:26.156Z,5.60
2023-01-20T08:58:54.179Z,5.66
2023-01-20T09:01:27.026Z,5.82
2023-01-20T09:04:05.476Z,5.93
2023-01-20T09:07:08.331Z,6.04
2023-01-20T09:09:36.829Z,6.20
2023-01-20T09:12:05.693Z,6.30
2023-01-20T09:14:33.796Z,6.40
2023-01-20T09:17:02.797Z,6.44
2023-01-20T09:19:30.777Z,6.57
2023-01-20T09:21:58.502Z,6.66
2023-01-20T09:24:26.772Z,6.74
2023-01-20T09:26:54.941Z,6.75
2023-01-20T09:29:23.094Z,6.81
2023-01-20T09:31:50.986Z,6.97
2023-01-20T09:34:24.636Z,7.12
2023-01-20T09:36:56.273Z,7.22
2023-01-20T09:39:42.373Z,7.31
2023-01-20T09:42:36.660Z,7.41
2023-01-20T09:45:25.185Z,7.49
2023-01-20T09:47:52.079Z,7.67
2023-01-20T09:50:50.532Z,7.76
2023-01-20T09:53:32.817Z,7.89
2023-01-20T09:56:17.760Z,7.99
2023-01-20T09:58:55.864Z,7.99
2023-01-20T10:01:32.009Z,8.14
2023-01-20T10:04:05.052Z,8.23
2023-01-20T10:06:39.699Z,8.31
2023-01-20T10:09:21.359Z,8.27
2023-01-20T10:11:49.413Z,8.32
2023-01-20T10:14:34.793Z,8.47
2023-01-20T10:17:13.536Z,8.43
2023-01-20T10:19:42.373Z,8.43
2023-01-20T10:22:13.321Z,8.46
2023-01-20T10:24:58.612Z,8.39
2023-01-20T10:27:26.516Z,8.25
2023-01-20T10:29:58.303Z,8.27
2023-01-20T10:32:33.786Z,8.41
2023-01-20T10:35:04.264Z,8.54
2023-01-20T10:37:32.160Z,8.73
2023-01-20T10:40:07.498Z,8.79
2023-01-20T10:42:35.586Z,8.86
2023-01-20T10:45:03.329Z,8.87
2023-01-20T10:47:50.246Z,8.91
2023-01-20T10:50:28.349Z,8.95
2023-01-20T10:53:26.894Z,8.97
2023-01-20T10:55:59.051Z,9.11
2023-01-20T10:58:32.048Z,9.25
2023-01-20T11:01:00.705Z,9.31
2023-01-20T11:03:28.672Z,9.48
2023-01-20T11:05:56.305Z,9.62
2023-01-20T11:08:29.684Z,9.76
2023-01-20T11:10:57.673Z,9.90
2023-01-20T11:13:25.506Z,9.97
2023-01-20T11:15:58.361Z,10.09
2023-01-20T11:18:32.302Z,10.08
2023-01-20T11:21:10.450Z,10.16
2023-01-20T11:23:39.820Z,10.30
2023-01-20T11:26:18.915Z,10.31
2023-01-20T11:28:55.515Z,10.30
2023-01-20T11:31:33.547Z,10.51
2023-01-20T11:34:02.907Z,10.59
2023-01-20T11:36:33.636Z,10.68
2023-01-20T11:39:01.571Z,10.90
2023-01-20T11:41:30.123Z,11.11
2023-01-20T11:43:59.022Z,11.29
2023-01-20T11:46:27.258Z,11.60
2023-01-20T11:49:36.863Z,11.61
2023-01-20T11:52:08.671Z,11.43
2023-01-20T11:54:37.369Z,11.25
2023-01-20T11:57:07.055Z,11.17
2023-01-20T11:59:35.950Z,11.46
2023-01-20T12:02:24.180Z,11.74
2023-01-20T12:05:00.292Z,11.96
2023-01-20T12:07:48.077Z,11.92
2023-01-20T12:10:25.140Z,12.15
2023-01-20T12:12:52.403Z,12.31
2023-01-20T12:15:27.675Z,12.52
2023-01-20T12:18:16.083Z,12.53
2023-01-20T12:21:08.180Z,12.43
2023-01-20T12:23:53.793Z,12.77
2023-01-20T12:26:22.613Z,12.94
2023-01-20T12:29:18.151Z,13.42
2023-01-20T12:31:49.037Z,13.72
2023-01-20T12:34:29.884Z,13.98
2023-01-20T12:37:08.831Z,14.24
2023-01-20T12:39:57.593Z,14.38
2023-01-20T12:42:46.285Z,14.52
2023-01-20T12:45:34.911Z,14.72
2023-01-20T12:48:22.189Z,14.83
2023-01-20T12:51:16.701Z,14.87
2023-01-20T12:54:47.406Z,14.76
2023-01-20T12:57:31.473Z,14.88
2023-01-20T13:00:35.274Z,14.92
2023-01-20T13:03:24.621Z,15.14
2023-01-20T13:06:12.788Z,15.37
2023-01-20T13:08:58.791Z,15.72
2023-01-20T13:11:46.420Z,15.79
2023-01-20T13:14:18.415Z,15.83
2023-01-20T13:17:07.396Z,15.82
2023-01-20T13:19:37.822Z,15.71
2023-01-20T13:22:11.462Z,15.65
2023-01-20T13:24:39.791Z,15.34
2023-01-20T13:27:07.526Z,15.23
2023-01-20T13:29:37.472Z,14.88
2023-01-20T13:32:14.953Z,14.99
2023-01-20T13:34:43.032Z,15.25
2023-01-20T13:37:38.185Z,15.53
2023-01-20T13:40:26.821Z,15.22
2023-01-20T13:43:26.806Z,15.43
2023-01-20T13:46:05.793Z,15.46
2023-01-20T13:48:33.940Z,15.29
2023-01-20T13:51:16.644Z,15.47
2023-01-20T13:53:44.901Z,15.57
2023-01-20T13:56:26.315Z,15.66
2023-01-20T13:58:54.521Z,15.79
2023-01-20T14:01:22.610Z,15.92
2023-01-20T14:04:07.823Z,15.98
2023-01-20T14:06:36.239Z,16.16
2023-01-20T14:09:03.980Z,16.23
2023-01-20T14:11:32.022Z,16.22
2023-01-20T14:14:05.812Z,16.09
2023-01-20T14:16:36.071Z,16.13
2023-01-20T14:19:16.051Z,16.12
2023-01-20T14:21:44.110Z,15.89
2023-01-20T14:24:44.119Z,15.56
2023-01-20T14:27:35.693Z,15.32
2023-01-20T14:30:23.308Z,14.94
2023-01-20T14:32:51.872Z,14.55
2023-01-20T14:35:27.536Z,14.23
2023-01-20T14:37:54.847Z,13.87
2023-01-20T14:40:49.547Z,13.49
2023-01-20T14:43:38.410Z,13.15
2023-01-20T14:46:06.662Z,12.60
2023-01-20T14:48:35.376Z,12.36
2023-01-20T14:51:04.332Z,11.92
2023-01-20T14:53:32.402Z,11.82
2023-01-20T14:56:08.335Z,11.63
2023-01-20T14:58:36.508Z,11.57
2023-01-20T15:01:09.493Z,11.57
2023-01-20T15:03:37.650Z,11.66
2023-01-20T15:06:10.642Z,11.59
2023-01-20T15:08:37.386Z,11.35
2023-01-20T15:11:19.038Z,11.59
2023-01-20T15:13:52.954Z,11.82
2023-01-20T15:16:25.201Z,11.88
2023-01-20T15:19:13.653Z,12.26
2023-01-20T15:21:42.601Z,12.57
2023-01-20T15:24:24.037Z,12.84
2023-01-20T15:26:53.244Z,13.65
2023-01-20T15:29:27.802Z,14.04
2023-01-20T15:31:56.305Z,13.19
2023-01-20T15:34:27.476Z,12.52
2023-01-20T15:36:55.752Z,12.24
2023-01-20T15:39:23.795Z,11.84
2023-01-20T15:41:57.017Z,11.93
2023-01-20T15:44:25.469Z,11.91
2023-01-20T15:46:54.746Z,11.50
2023-01-20T15:49:25.518Z,11.04
2023-01-20T15:51:53.294Z,10.61
2023-01-20T15:54:21.370Z,10.12
2023-01-20T15:56:49.569Z,9.82
2023-01-20T15:59:18.231Z,9.56
2023-01-20T16:01:51.777Z,9.32
2023-01-20T16:04:20.715Z,9.09
2023-01-20T16:06:49.338Z,8.89
2023-01-20T16:09:25.696Z,8.79
2023-01-20T16:11:53.450Z,8.76
2023-01-20T16:14:21.231Z,8.70
2023-01-20T16:16:51.646Z,8.67
2023-01-20T16:19:19.593Z,8.63
2023-01-20T16:21:47.242Z,8.53
2023-01-20T16:24:15.223Z,8.48
2023-01-20T16:26:42.729Z,8.43
2023-01-20T16:29:10.723Z,8.39
2023-01-20T16:31:38.608Z,8.39
2023-01-20T16:34:07.879Z,8.33
2023-01-20T16:36:35.889Z,8.31
2023-01-20T16:39:03.851Z,8.24
2023-01-20T16:41:32.070Z,8.20
2023-01-20T16:44:02.920Z,8.16
2023-01-20T16:46:31.571Z,8.13
2023-01-20T16:49:01.489Z,8.11
2023-01-20T16:51:29.927Z,8.10
2023-01-20T16:53:57.013Z,8.07
2023-01-20T16:56:28.290Z,8.03
2023-01-20T16:58:59.764Z,7.95
2023-01-20T17:01:29.078Z,7.85
2023-01-20T17:03:59.022Z,7.73
2023-01-20T17:06:28.373Z,7.80
2023-01-20T17:08:57.847Z,7.84
2023-01-20T17:11:27.448Z,7.74
2023-01-20T17:13:55.135Z,7.78
2023-01-20T17:16:22.513Z,7.71
2023-01-20T17:18:53.978Z,7.75
2023-01-20T17:21:22.446Z,7.70
2023-01-20T17:23:51.210Z,7.69
2023-01-20T17:26:19.008Z,7.66
2023-01-20T17:28:46.800Z,7.59
2023-01-20T17:31:14.663Z,7.55
2023-01-20T17:33:48.949Z,7.44
2023-01-20T17:36:16.949Z,7.35
2023-01-20T17:38:44.587Z,7.26
2023-01-20T17:41:12.107Z,7.26
2023-01-20T17:43:40.891Z,7.22
2023-01-20T17:46:22.447Z,7.17
2023-01-20T17:48:50.372Z,7.14
2023-01-20T17:51:18.812Z,7.12
2023-01-20T17:53:47.104Z,7.15
2023-01-20T17:56:15.442Z,7.13
2023-01-20T17:58:43.964Z,7.16
2023-01-20T18:01:25.656Z,7.13
2023-01-20T18:03:54.950Z,7.12
2023-01-20T18:06:23.824Z,7.17
2023-01-20T18:08:56.526Z,7.18
2023-01-20T18:11:24.190Z,7.24
2023-01-20T18:13:52.174Z,7.25
2023-01-20T18:16:20.381Z,7.24
2023-01-20T18:18:48.893Z,7.23
2023-01-20T18:21:38.812Z,7.18
2023-01-20T18:24:07.495Z,7.14
2023-01-20T18:26:36.356Z,7.11
2023-01-20T18:29:08.369Z,7.12
2023-01-20T18:31:35.635Z,7.10
2023-01-20T18:34:05.016Z,7.11
2023-01-20T18:36:36.990Z,7.09
2023-01-20T18:39:43.959Z,7.06
2023-01-20T18:42:12.559Z,6.99
2023-01-20T18:44:40.472Z,6.91
2023-01-20T18:47:08.827Z,6.84
2023-01-20T18:49:36.885Z,6.76
2023-01-20T18:52:06.207Z,6.77
2023-01-20T18:54:37.481Z,6.71
2023-01-20T18:57:06.321Z,6.66
2023-01-20T18:59:36.090Z,6.65
2023-01-20T19:02:04.243Z,6.70
2023-01-20T19:04:33.691Z,6.65
2023-01-20T19:07:01.661Z,6.61
2023-01-20T19:09:30.027Z,6.55
2023-01-20T19:12:01.166Z,6.52
2023-01-20T19:14:29.053Z,6.51
2023-01-20T19:16:56.687Z,6.45
2023-01-20T19:19:24.875Z,6.45
2023-01-20T19:21:52.899Z,6.43
2023-01-20T19:24:20.799Z,6.41
2023-01-20T19:26:49.327Z,6.36
2023-01-20T19:29:17.555Z,6.38
2023-01-20T19:31:45.472Z,6.34
2023-01-20T19:34:12.857Z,6.28
2023-01-20T19:36:40.494Z,6.23
2023-01-20T19:39:08.291Z,6.15
2023-01-20T19:41:36.458Z,6.12
2023-01-20T19:44:04.572Z,6.12
2023-01-20T19:46:33.888Z,6.04
2023-01-20T19:49:02.584Z,6.01
2023-01-20T19:51:31.660Z,5.98
2023-01-20T19:54:00.553Z,5.88
2023-01-20T19:56:30.379Z,5.82
2023-01-20T19:58:58.035Z,5.80
2023-01-20T20:01:27.716Z,5.77
2023-01-20T20:03:57.124Z,5.76
2023-01-20T20:06:32.130Z,5.75
2023-01-20T20:09:05.919Z,5.70
2023-01-20T20:11:33.538Z,5.55
2023-01-20T20:14:01.703Z,5.40
2023-01-20T20:16:30.479Z,5.33
2023-01-20T20:18:57.853Z,5.31
2023-01-20T20:21:25.818Z,5.26
2023-01-20T20:23:55.043Z,5.30
2023-01-20T20:26:24.313Z,5.29
2023-01-20T20:28:52.245Z,5.27
2023-01-20T20:31:30.246Z,5.26
2023-01-20T20:34:01.849Z,5.23
2023-01-20T20:36:31.018Z,5.20
2023-01-20T20:39:01.687Z,5.15
2023-01-20T20:41:31.727Z,5.11
2023-01-20T20:44:00.239Z,5.07
2023-01-20T20:46:27.792Z,4.98
2023-01-20T20:48:56.342Z,4.92
2023-01-20T20:51:24.176Z,4.88
2023-01-20T20:53:54.529Z,4.85
2023-01-20T20:56:23.079Z,4.84
2023-01-20T20:59:01.023Z,4.80
2023-01-20T21:01:29.408Z,4.82
2023-01-20T21:03:58.193Z,4.77
2023-01-20T21:06:26.386Z,4.76
2023-01-20T21:08:53.579Z,4.76
2023-01-20T21:11:21.799Z,4.72
2023-01-20T21:13:53.077Z,4.69
2023-01-20T21:16:22.908Z,4.67
2023-01-20T21:18:50.916Z,4.67
2023-01-20T21:21:19.470Z,4.66
2023-01-20T21:23:54.582Z,4.72
2023-01-20T21:26:22.260Z,4.73
2023-01-20T21:28:50.302Z,4.71
2023-01-20T21:31:21.343Z,4.72
2023-01-20T21:33:53.553Z,4.70
2023-01-20T21:36:23.105Z,4.59
2023-01-20T21:38:50.816Z,4.33
2023-01-20T21:41:18.743Z,4.23
2023-01-20T21:44:04.880Z,4.15
2023-01-20T21:46:38.963Z,4.21
2023-01-20T21:49:26.082Z,4.25
2023-01-20T21:52:13.482Z,4.21
2023-01-20T21:54:41.589Z,4.13
2023-01-20T21:57:09.367Z,4.10
2023-01-20T21:59:37.841Z,4.09
2023-01-20T22:02:06.123Z,4.05
2023-01-20T22:04:34.141Z,3.96
2023-01-20T22:07:01.780Z,3.98
2023-01-20T22:09:29.590Z,3.97
2023-01-20T22:11:58.062Z,3.99
2023-01-20T22:14:26.242Z,4.06
2023-01-20T22:16:59.709Z,4.08
2023-01-20T22:19:27.385Z,4.05
2023-01-20T22:21:56.843Z,4.05
2023-01-20T22:24:24.467Z,4.01
2023-01-20T22:26:52.598Z,3.79
2023-01-20T22:29:20.754Z,3.55
2023-01-20T22:31:48.120Z,3.43
2023-01-20T22:34:16.399Z,3.45
2023-01-20T22:36:46.722Z,3.38
2023-01-20T22:39:14.961Z,3.40
2023-01-20T22:41:42.890Z,3.44
2023-01-20T22:44:10.477Z,3.46
2023-01-20T22:46:38.160Z,3.42
2023-01-20T22:49:05.343Z,3.48
2023-01-20T22:51:32.951Z,3.47
2023-01-20T22:54:00.916Z,3.52
2023-01-20T22:56:32.071Z,3.59
2023-01-20T22:59:00.801Z,3.60
2023-01-20T23:01:35.834Z,3.56
2023-01-20T23:04:04.752Z,3.48
2023-01-20T23:06:33.740Z,3.42
2023-01-20T23:09:01.625Z,3.32
2023-01-20T23:11:29.432Z,3.34
2023-01-20T23:13:56.879Z,3.34
2023-01-20T23:16:24.614Z,3.37
2023-01-20T23:18:53.297Z,3.33
2023-01-20T23:21:21.818Z,3.31
2023-01-20T23:23:54.467Z,3.24
2023-01-20T23:26:24.241Z,3.18
2023-01-20T23:28:51.066Z,3.14
2023-01-20T23:31:18.544Z,3.11
2023-01-20T23:33:46.416Z,3.10
2023-01-20T23:36:36.353Z,3.07
2023-01-20T23:39:04.711Z,2.88
2023-01-20T23:41:33.042Z,2.83
2023-01-20T23:44:01.263Z,2.87
2023-01-20T23:46:29.203Z,2.95
2023-01-20T23:48:56.866Z,2.99
2023-01-20T23:51:25.001Z,2.93
2023-01-20T23:53:52.943Z,2.85
2023-01-20T23:56:23.814Z,2.86
2023-01-20T23:58:52.292Z,2.90
